createdAt,value
2018-05-17T00:00:37.623Z,12.60
2018-05-17T00:05:29.213Z,12.70
2018-05-17T00:10:21.486Z,12.70
2018-05-17T00:15:13.750Z,12.70
2018-05-17T00:20:06.001Z,12.60
2018-05-17T00:24:58.219Z,12.60
2018-05-17T00:29:51.221Z,12.60
2018-05-17T00:34:42.819Z,12.60
2018-05-17T00:39:34.371Z,12.70
2018-05-17T00:44:26.674Z,12.40
2018-05-17T00:49:18.197Z,12.30
2018-05-17T00:54:09.674Z,12.30
2018-05-17T00:59:01.161Z,12.30
2018-05-17T01:03:52.799Z,12.30
2018-05-17T01:08:44.386Z,12.30
2018-05-17T01:13:35.898Z,12.20
2018-05-17T01:18:27.472Z,12.20
2018-05-17T01:23:19.738Z,12.10
2018-05-17T01:28:13.067Z,12.10
2018-05-17T01:33:04.608Z,12.00
2018-05-17T01:38:14.561Z,12.00
2018-05-17T01:43:06.117Z,11.90
2018-05-17T01:47:57.591Z,11.70
2018-05-17T01:52:49.105Z,11.70
2018-05-17T01:57:41.329Z,11.40
2018-05-17T02:02:32.859Z,11.30
2018-05-17T02:07:24.398Z,11.40
2018-05-17T02:12:17.432Z,11.10
2018-05-17T02:17:08.958Z,11.10
2018-05-17T02:22:00.439Z,11.10
2018-05-17T02:26:52.666Z,11.10
2018-05-17T02:31:44.171Z,11.10
2018-05-17T02:36:35.639Z,11.20
2018-05-17T02:41:27.190Z,11.10
2018-05-17T02:46:18.655Z,11.00
2018-05-17T02:51:10.949Z,10.80
2018-05-17T02:56:02.489Z,10.60
2018-05-17T03:00:53.992Z,10.70
2018-05-17T03:05:45.519Z,10.70
2018-05-17T03:10:37.035Z,10.70
2018-05-17T03:15:29.277Z,10.80
2018-05-17T03:20:21.535Z,10.80
2018-05-17T03:25:13.765Z,10.70
2018-05-17T03:30:05.314Z,10.70
2018-05-17T03:34:57.560Z,10.80
2018-05-17T03:39:49.805Z,10.70
2018-05-17T03:44:41.306Z,10.60
2018-05-17T03:49:32.858Z,10.70
2018-05-17T03:54:24.395Z,10.70
2018-05-17T03:59:16.671Z,10.70
2018-05-17T04:04:27.428Z,10.80
2018-05-17T04:09:18.926Z,10.80
2018-05-17T04:14:10.425Z,10.80
2018-05-17T04:19:02.700Z,10.80
2018-05-17T04:23:54.202Z,10.80
2018-05-17T04:28:46.522Z,10.90
2018-05-17T04:33:38.085Z,10.80
2018-05-17T04:38:29.618Z,11.00
2018-05-17T04:43:21.343Z,11.00
2018-05-17T04:48:12.836Z,11.00
2018-05-17T04:53:04.371Z,11.00
2018-05-17T04:57:55.861Z,11.00
2018-05-17T05:02:47.381Z,10.90
2018-05-17T05:07:40.373Z,11.00
2018-05-17T05:12:32.621Z,11.10
2018-05-17T05:17:24.843Z,11.20
2018-05-17T05:22:16.361Z,11.10
2018-05-17T05:27:08.861Z,11.40
2018-05-17T05:32:01.143Z,11.50
2018-05-17T05:36:52.719Z,11.40
2018-05-17T05:41:44.246Z,11.60
2018-05-17T05:46:36.574Z,11.80
2018-05-17T05:51:28.826Z,12.00
2018-05-17T05:56:20.335Z,11.90
2018-05-17T06:01:12.590Z,12.50
2018-05-17T06:06:04.127Z,12.50
2018-05-17T06:10:55.647Z,12.70
2018-05-17T06:15:47.916Z,12.80
2018-05-17T06:20:39.404Z,12.80
2018-05-17T06:25:32.412Z,13.00
2018-05-17T06:30:24.711Z,13.10
2018-05-17T06:35:16.168Z,13.10
2018-05-17T06:40:07.671Z,13.40
2018-05-17T06:44:59.246Z,13.50
2018-05-17T06:49:52.407Z,13.70
2018-05-17T06:54:43.947Z,13.60
2018-05-17T06:59:35.444Z,13.90
2018-05-17T07:04:26.948Z,14.00
2018-05-17T07:09:18.443Z,14.00
2018-05-17T07:14:09.952Z,13.80
2018-05-17T07:19:01.481Z,13.80
2018-05-17T07:23:53.007Z,13.90
2018-05-17T07:28:44.498Z,13.80
2018-05-17T07:33:36.768Z,14.40
2018-05-17T07:38:28.284Z,14.30
2018-05-17T07:43:20.537Z,14.80
2018-05-17T07:48:12.764Z,15.60
2018-05-17T07:53:04.295Z,15.50
2018-05-17T07:57:55.797Z,16.10
2018-05-17T08:02:47.311Z,16.30
2018-05-17T08:07:38.816Z,17.20
2018-05-17T08:12:30.335Z,18.10
2018-05-17T08:17:21.833Z,18.90
2018-05-17T08:22:13.369Z,19.60
2018-05-17T08:27:05.045Z,19.60
2018-05-17T08:31:57.324Z,20.60
2018-05-17T08:36:48.953Z,20.50
2018-05-17T08:41:40.425Z,21.70
2018-05-17T08:46:32.056Z,23.40
2018-05-17T08:51:23.613Z,22.70
2018-05-17T08:56:15.109Z,22.40
2018-05-17T09:01:07.073Z,22.50
2018-05-17T09:05:58.573Z,24.00
2018-05-17T09:10:50.129Z,24.00
2018-05-17T09:15:41.656Z,24.00
2018-05-17T09:20:33.280Z,23.90
2018-05-17T09:25:24.688Z,23.30
2018-05-17T09:30:16.961Z,23.30
2018-05-17T09:35:08.483Z,23.20
2018-05-17T09:40:01.416Z,23.30
2018-05-17T09:44:52.941Z,23.30
2018-05-17T09:49:44.408Z,23.10
2018-05-17T09:54:36.688Z,23.10
2018-05-17T09:59:28.257Z,23.00
2018-05-17T10:04:19.759Z,23.50
2018-05-17T10:09:11.362Z,22.50
2018-05-17T10:14:03.976Z,21.80
2018-05-17T10:18:55.515Z,20.90
2018-05-17T10:23:47.038Z,20.70
2018-05-17T10:28:38.691Z,20.50
2018-05-17T10:33:30.239Z,20.00
2018-05-17T10:38:21.941Z,19.70
2018-05-17T10:43:13.442Z,19.10
2018-05-17T10:48:05.743Z,18.90
2018-05-17T10:52:57.223Z,18.90
2018-05-17T10:57:49.490Z,18.90
2018-05-17T11:02:41.079Z,18.90
2018-05-17T11:07:32.544Z,18.90
2018-05-17T11:12:24.773Z,18.70
2018-05-17T11:17:16.391Z,18.70
2018-05-17T11:22:07.894Z,18.50
2018-05-17T11:26:59.432Z,18.50
2018-05-17T11:31:50.937Z,18.50
2018-05-17T11:36:42.509Z,18.30
2018-05-17T11:41:34.029Z,18.70
2018-05-17T11:46:25.583Z,18.50
2018-05-17T11:51:17.407Z,18.30
2018-05-17T11:56:08.913Z,18.10
2018-05-17T12:01:01.182Z,18.20
2018-05-17T12:05:52.896Z,18.10
2018-05-17T12:10:45.117Z,18.50
2018-05-17T12:15:36.633Z,18.50
2018-05-17T12:20:28.152Z,18.70
2018-05-17T12:25:19.649Z,18.40
2018-05-17T12:30:11.887Z,18.70
2018-05-17T12:35:04.168Z,18.80
2018-05-17T12:39:55.669Z,18.70
2018-05-17T12:44:47.904Z,19.10
2018-05-17T12:49:39.453Z,19.10
2018-05-17T12:54:31.712Z,19.50
2018-05-17T12:59:24.007Z,19.30
2018-05-17T13:04:15.516Z,19.30
2018-05-17T13:09:06.996Z,19.10
2018-05-17T13:13:58.505Z,19.00
2018-05-17T13:18:50.032Z,19.30
2018-05-17T13:23:41.573Z,19.20
2018-05-17T13:28:33.122Z,19.40
2018-05-17T13:33:24.605Z,19.80
2018-05-17T13:38:16.893Z,19.50
2018-05-17T13:43:08.458Z,19.40
2018-05-17T13:47:59.995Z,19.50
2018-05-17T13:52:51.502Z,19.50
2018-05-17T13:57:43.003Z,19.60
2018-05-17T14:02:34.570Z,19.60
2018-05-17T14:07:26.019Z,19.80
2018-05-17T14:12:17.565Z,20.00
2018-05-17T14:17:09.077Z,20.20
2018-05-17T14:22:00.567Z,20.10
2018-05-17T14:26:52.066Z,20.30
2018-05-17T14:31:43.655Z,20.30
2018-05-17T14:36:35.167Z,20.20
2018-05-17T14:41:27.418Z,20.30
2018-05-17T14:46:19.649Z,20.40
2018-05-17T14:51:11.154Z,20.30
2018-05-17T14:56:02.661Z,20.50
2018-05-17T15:00:54.172Z,20.60
2018-05-17T15:05:45.699Z,20.50
2018-05-17T15:10:37.939Z,20.40
2018-05-17T15:15:30.208Z,20.50
2018-05-17T15:20:21.695Z,20.40
2018-05-17T15:25:13.215Z,20.70
2018-05-17T15:30:04.841Z,20.70
2018-05-17T15:34:56.340Z,20.70
2018-05-17T15:39:47.860Z,20.80
2018-05-17T15:44:40.157Z,20.70
2018-05-17T15:49:31.738Z,20.70
2018-05-17T15:54:23.241Z,20.60
2018-05-17T15:59:14.743Z,20.40
2018-05-17T16:04:06.240Z,20.30
2018-05-17T16:08:57.755Z,20.50
2018-05-17T16:13:49.280Z,20.50
2018-05-17T16:18:40.810Z,20.40
2018-05-17T16:23:32.320Z,20.20
2018-05-17T16:28:23.909Z,20.00
2018-05-17T16:33:15.433Z,19.80
2018-05-17T16:38:06.988Z,19.70
2018-05-17T16:42:59.228Z,19.60
2018-05-17T16:47:50.767Z,19.50
2018-05-17T16:52:42.360Z,19.50
2018-05-17T16:57:33.810Z,19.40
2018-05-17T17:02:25.327Z,19.20
2018-05-17T17:07:16.877Z,19.10
2018-05-17T17:12:08.415Z,19.00
2018-05-17T17:16:59.980Z,18.80
2018-05-17T17:21:51.553Z,18.80
2018-05-17T17:26:43.101Z,18.80
2018-05-17T17:31:34.641Z,18.50
2018-05-17T17:36:26.264Z,18.20
2018-05-17T17:41:17.755Z,18.00
2018-05-17T17:46:10.060Z,17.80
2018-05-17T17:51:01.591Z,17.70
2018-05-17T17:55:53.848Z,17.40
2018-05-17T18:00:45.370Z,17.40
2018-05-17T18:05:36.927Z,17.30
2018-05-17T18:10:28.458Z,17.10
2018-05-17T18:15:19.983Z,16.90
2018-05-17T18:20:12.372Z,16.80
2018-05-17T18:25:04.661Z,16.50
2018-05-17T18:29:56.255Z,16.50
2018-05-17T18:34:47.774Z,16.30
2018-05-17T18:39:39.317Z,16.20
2018-05-17T18:44:30.841Z,16.10
2018-05-17T18:49:22.326Z,15.90
2018-05-17T18:54:13.848Z,15.80
2018-05-17T18:59:06.170Z,15.50
2018-05-17T19:03:57.675Z,15.40
2018-05-17T19:08:50.350Z,15.30
2018-05-17T19:13:41.841Z,15.10
2018-05-17T19:18:33.403Z,15.00
2018-05-17T19:23:25.045Z,14.80
2018-05-17T19:28:16.550Z,14.60
2018-05-17T19:33:08.070Z,14.50
2018-05-17T19:38:00.469Z,14.30
2018-05-17T19:42:52.023Z,14.20
2018-05-17T19:47:43.521Z,14.00
2018-05-17T19:52:35.029Z,13.90
2018-05-17T19:57:27.317Z,13.70
2018-05-17T20:02:19.577Z,13.60
2018-05-17T20:07:11.087Z,13.50
2018-05-17T20:12:03.625Z,13.40
2018-05-17T20:16:55.127Z,13.30
2018-05-17T20:21:46.646Z,13.20
2018-05-17T20:26:38.915Z,13.10
2018-05-17T20:31:30.402Z,13.00
2018-05-17T20:36:21.923Z,12.90
2018-05-17T20:41:13.448Z,12.80
2018-05-17T20:46:04.988Z,12.70
2018-05-17T20:50:56.501Z,12.60
2018-05-17T20:55:48.758Z,12.40
2018-05-17T21:00:40.266Z,12.40
2018-05-17T21:05:32.548Z,12.20
2018-05-17T21:10:24.079Z,12.10
2018-05-17T21:15:16.299Z,12.00
2018-05-17T21:20:07.811Z,12.00
2018-05-17T21:24:59.314Z,11.90
2018-05-17T21:29:50.835Z,11.80
2018-05-17T21:34:42.353Z,11.70
2018-05-17T21:39:34.663Z,11.60
2018-05-17T21:44:26.153Z,11.50
2018-05-17T21:49:17.738Z,11.50
2018-05-17T21:54:09.256Z,11.40
2018-05-17T21:59:00.757Z,11.20
2018-05-17T22:03:52.247Z,11.10
2018-05-17T22:08:43.793Z,11.10
2018-05-17T22:13:35.305Z,10.90
2018-05-17T22:18:26.948Z,10.80
2018-05-17T22:23:18.498Z,10.80
2018-05-17T22:28:10.536Z,10.60
2018-05-17T22:33:02.049Z,10.60
2018-05-17T22:37:53.573Z,10.50
2018-05-17T22:42:46.089Z,10.50
2018-05-17T22:47:38.371Z,10.40
2018-05-17T22:52:29.858Z,10.30
2018-05-17T22:57:39.719Z,10.20
2018-05-17T23:02:31.231Z,10.20
2018-05-17T23:07:22.725Z,10.10
2018-05-17T23:12:14.269Z,10.10
2018-05-17T23:17:05.785Z,10.00
2018-05-17T23:21:57.311Z,9.90
2018-05-17T23:26:49.588Z,9.70
2018-05-17T23:31:41.110Z,9.70
2018-05-17T23:36:32.651Z,9.70
2018-05-17T23:41:34.154Z,9.60
2018-05-17T23:46:25.677Z,9.50
2018-05-17T23:51:17.195Z,9.50
2018-05-17T23:56:08.710Z,9.40
